This is the latest recevied weather packets stored in our database for station/object DC2ML-11. If no packets are shown the sender has not sent any weather packets the latest 10 day(s).
| Time | Temp. | Humidity | Pressure | Rain* | Wind** | Luminosity | Snow |
|---|---|---|---|---|---|---|---|
| 1777698699 | 17.22° C | 42% | 1020.7 hPa | - | - | - | - |
| 1777697799 | 17.22° C | 42% | 1020.7 hPa | - | - | - | - |
| 1777696898 | 17.22° C | 41% | 1020.7 hPa | - | - | - | - |
| 1777695998 | 17.22° C | 41% | 1020.8 hPa | - | - | - | - |
| 1777695098 | 17.22° C | 42% | 1020.9 hPa | - | - | - | - |
| 1777694198 | 17.78° C | 41% | 1020.9 hPa | - | - | - | - |
| 1777693298 | 17.78° C | 41% | 1021 hPa | - | - | - | - |
| 1777692398 | 17.78° C | 41% | 1021 hPa | - | - | - | - |
| 1777691498 | 17.78° C | 41% | 1021.2 hPa | - | - | - | - |
| 1777690597 | 18.33° C | 41% | 1021.2 hPa | - | - | - | - |
| 1777689696 | 18.33° C | 41% | 1021.4 hPa | - | - | - | - |
| 1777688796 | 18.33° C | 42% | 1021.4 hPa | - | - | - | - |
| 1777673495 | 20.56° C | 39% | 1022.8 hPa | - | - | - | - |
| 1777670795 | 21.11° C | 39% | 1022.9 hPa | - | - | - | - |
| 1777669894 | 21.67° C | 38% | 1022.9 hPa | - | - | - | - |
| 1777668099 | 21.67° C | 38% | 1023 hPa | - | - | - | - |
| 1777667199 | 22.22° C | 38% | 1023 hPa | - | - | - | - |
| 1777666299 | 22.22° C | 37% | 1023 hPa | - | - | - | - |
| 1777663599 | 22.22° C | 36% | 1022.9 hPa | - | - | - | - |
| 1777662699 | 22.22° C | 36% | 1023 hPa | - | - | - | - |
| 1777661799 | 22.78° C | 35% | 1022.8 hPa | - | - | - | - |
| 1777659999 | 22.22° C | 35% | 1023 hPa | - | - | - | - |
| 1777659099 | 22.78° C | 35% | 1022.9 hPa | - | - | - | - |
| 1777655498 | 22.22° C | 35% | 1022.9 hPa | - | - | - | - |
| 1777654598 | 22.22° C | 36% | 1022.9 hPa | - | - | - | - |
* Rain since midnight (hover to see other rain measurements)
** Current wind speed in m/s (hover to see current wind gust speed)